Latest Weather Observations for Snowtown

IDS60801

Issued at 2:35 pm CST Wednesday 3 September 2014 (issued every 30 minutes, with the page automatically refreshed every 10 minutes)

About weather observations | Map of weather stations | Latest weather observations for SA | Other Formats
Station Details ID: 021133 Name: RAYVILLE PARK Lat: -33.77 Lon: 138.22 Height: 109.1 m
Data from the previous 72 hours. | See also: Recent months at Snowtown
Date/Time
CST
Temp
°C
App
Temp
°C
Dew
Point
Rel
Hum
%
Delta-T
°C
Wind Press
QNH
hPa
Press
MSL
hPa
Rain
since 9 am
mm
Dir
 
Spd
km/h
Gust
km/h
Spd
kts
Gust
kts
03/02:30pm 13.5 10.1 7.5 67 2.9 NNW 15 20 8 11 1020.6 1020.6 0.0
03/02:00pm 13.8 11.0 8.6 71 2.6 N 13 19 7 10 1020.8 1020.8 0.0
03/01:30pm 14.2 10.2 8.4 68 2.9 N 19 24 10 13 1021.0 1021.0 0.0
03/01:00pm 12.6 8.4 8.1 74 2.2 N 20 26 11 14 1021.5 1021.5 0.0
03/12:30pm 11.5 7.1 7.4 76 2.0 N 20 28 11 15 1021.9 1022.0 0.0
03/12:00pm 11.8 7.5 7.9 77 1.9 N 20 26 11 14 1022.7 1022.7 0.0
03/11:30am 11.8 9.1 8.8 82 1.5 N 13 19 7 10 1023.2 1023.2 0.0
03/11:00am 11.0 7.3 7.9 81 1.5 N 17 20 9 11 1023.8 1023.8 0.0
03/10:30am 11.4 7.4 8.4 82 1.5 NNE 19 24 10 13 1023.9 1023.9 0.0
03/10:00am 10.8 7.2 8.4 85 1.2 N 17 20 9 11 1024.7 1024.7 0.0
03/09:30am 9.4 5.6 7.5 88 0.9 NNE 17 24 9 13 1024.8 1024.8 0.0
03/09:00am 8.9 5.5 7.5 91 0.7 NNE 15 19 8 10 1025.1 1025.1 0.2
03/08:30am 8.9 6.7 7.8 93 0.5 NNE 9 13 5 7 1025.4 1025.4 0.2
03/08:00am 7.6 5.7 7.5 99 0.0 N 7 9 4 5 1025.3 1025.3 0.2
03/07:30am 5.4 2.7 5.4 100 0.0 NW 9 11 5 6 1025.3 1025.3 0.2
03/07:00am 3.1 -0.5 3.0 99 0.0 NNW 11 13 6 7 1025.0 1025.0 0.2
03/06:30am 3.7 0.2 3.7 100 0.0 NNW 11 13 6 7 1024.8 1024.8 0.2
03/06:00am 3.8 0.4 3.8 100 0.0 NW 11 13 6 7 1025.2 1025.2 0.2
03/05:30am 3.0 -1.0 3.0 100 0.0 N 13 15 7 8 1025.1 1025.1 0.2
03/05:00am 2.2 -0.8 2.1 99 0.0 N 7 7 4 4 1025.0 1025.0 0.2
03/04:30am 2.5 -1.6 2.4 99 0.0 N 13 15 7 8 1024.6 1024.6 0.2
03/04:00am 2.4 -1.3 2.3 99 0.0 N 11 13 6 7 1024.6 1024.6 0.2
03/03:30am 2.7 -1.0 2.6 99 0.0 NNW 11 13 6 7 1024.8 1024.8 0.2
03/03:00am 2.5 -0.4 2.4 99 0.0 N 7 9 4 5 1025.0 1025.0 0.2
03/02:30am 2.4 -1.3 2.3 99 0.0 N 11 13 6 7 1025.4 1025.4 0.2
03/02:00am 1.8 -1.2 1.7 99 0.0 N 7 9 4 5 1025.9 1025.9 0.2
03/01:30am 2.6 -1.1 2.5 99 0.0 WSW 11 13 6 7 1025.9 1025.9 0.2
03/01:00am 1.9 -1.5 1.8 99 0.0 WSW 9 11 5 6 1026.1 1026.1 0.2
03/12:30am 1.2 -1.0 0.9 98 0.1 SW 2 6 1 3 1026.5 1026.5 0.2
03/12:00am 1.1 -1.9 0.7 97 0.1 SSW 6 9 3 5 1026.4 1026.4 0.2
 
Date/Time
CST
Temp
°C
App
Temp
°C
Dew
Point
Rel
Hum
%
Delta-T
°C
Wind Press
QNH
hPa
Press
MSL
hPa
Rain
since 9 am
mm
Dir
 
Spd
km/h
Gust
km/h
Spd
kts
Gust
kts
02/11:30pm 2.0 -1.4 1.7 98 0.1 WSW 9 11 5 6 1026.4 1026.4 0.2
02/11:00pm 2.1 -0.8 1.7 97 0.2 N 6 9 3 5 1026.6 1026.6 0.2
02/10:30pm 3.0 1.4 2.4 96 0.2 CALM 0 0 0 0 1026.9 1026.9 0.2
02/10:00pm 3.5 0.7 2.9 96 0.2 SW 7 9 4 5 1027.2 1027.2 0.2
02/09:30pm 4.1 1.9 3.5 96 0.2 WSW 4 9 2 5 1027.2 1027.2 0.2
02/09:00pm 4.0 0.5 3.4 96 0.2 WSW 11 11 6 6 1027.1 1027.1 0.2
02/08:30pm 4.6 1.2 4.0 96 0.3 SW 11 13 6 7 1026.9 1026.9 0.2
02/08:00pm 5.4 1.4 4.7 95 0.3 WSW 15 15 8 8 1026.6 1026.6 0.2
02/07:30pm 5.2 1.9 4.3 94 0.4 SW 11 13 6 7 1026.7 1026.7 0.2
02/07:00pm 5.9 2.7 4.9 93 0.4 SW 11 13 6 7 1026.4 1026.4 0.2
02/06:30pm 6.9 3.4 5.5 91 0.6 SW 13 13 7 7 1026.1 1026.1 0.2
02/06:00pm 9.2 6.2 6.1 81 1.4 SW 11 17 6 9 1025.9 1025.9 0.2
02/05:30pm 11.6 7.6 6.5 71 2.4 S 17 20 9 11 1025.4 1025.4 0.2
02/05:00pm 12.5 8.0 5.9 64 3.1 S 19 26 10 14 1025.4 1025.4 0.2
02/04:30pm 13.3 8.6 5.9 61 3.5 S 20 26 11 14 1025.1 1025.1 0.2
02/04:00pm 13.8 8.9 5.2 56 4.0 SSW 20 28 11 15 1024.9 1024.9 0.2
02/03:30pm 14.3 9.2 6.2 58 3.9 S 22 32 12 17 1024.7 1024.7 0.2
02/03:00pm 14.4 9.4 6.3 58 3.9 SSW 22 30 12 16 1024.7 1024.7 0.2
02/02:30pm 14.6 9.4 7.4 62 3.5 S 24 33 13 18 1024.7 1024.7 0.2
02/02:00pm 14.8 10.5 6.9 59 3.9 SSW 19 28 10 15 1024.8 1024.8 0.2
02/01:30pm 14.8 9.9 6.9 59 3.9 SSW 22 32 12 17 1024.9 1024.9 0.2
02/01:00pm 14.7 9.6 7.7 63 3.5 SSW 24 33 13 18 1025.1 1025.1 0.0
02/12:30pm 14.0 9.3 7.8 66 3.1 SSW 22 33 12 18 1025.3 1025.3 0.0
02/12:00pm 13.7 9.8 9.4 75 2.2 S 20 28 11 15 1025.4 1025.4 0.0
02/11:30am 13.2 9.7 8.7 74 2.3 SSW 17 26 9 14 1025.5 1025.5 0.0
02/11:00am 11.0 6.9 8.6 85 1.2 S 20 30 11 16 1026.0 1026.0 0.0
02/10:30am 13.2 8.7 8.7 74 2.3 S 22 37 12 20 1025.7 1025.7 0.0
02/10:00am 12.3 7.0 7.0 70 2.6 S 24 33 13 18 1025.6 1025.6 0.0
02/09:30am 11.6 6.3 6.9 73 2.2 S 24 35 13 19 1025.7 1025.7 0.0
02/09:00am 11.1 5.9 7.2 77 1.9 S 24 32 13 17 1025.7 1025.7 1.6
02/08:30am 10.0 6.0 6.7 80 1.5 SSW 17 22 9 12 1025.7 1025.7 1.6
02/08:00am 8.3 4.6 6.4 88 0.9 SSW 15 20 8 11 1025.1 1025.1 1.6
02/07:30am 6.0 2.8 5.1 94 0.4 S 11 15 6 8 1024.8 1024.8 1.6
02/07:00am 4.9 1.8 3.7 92 0.5 SSE 9 11 5 6 1024.7 1024.7 1.6
02/06:30am 5.8 2.5 4.4 91 0.6 SSW 11 19 6 10 1024.2 1024.2 1.6
02/06:00am 6.2 2.2 4.8 91 0.6 SSW 15 19 8 10 1023.8 1023.8 1.6
02/05:30am 6.3 1.9 4.9 91 0.6 SW 17 20 9 11 1023.4 1023.4 1.6
02/05:00am 6.6 2.3 5.1 90 0.7 SW 17 22 9 12 1022.9 1022.9 1.6
02/04:30am 6.5 1.8 5.1 91 0.6 WSW 19 24 10 13 1022.5 1022.5 1.6
02/04:00am 6.1 1.7 4.9 92 0.5 WSW 17 24 9 13 1022.2 1022.3 1.4
02/03:30am 5.7 1.2 4.3 91 0.6 SW 17 20 9 11 1021.9 1022.0 1.4
02/03:00am 5.8 1.4 4.6 92 0.5 WSW 17 20 9 11 1021.8 1021.9 1.4
02/02:30am 6.0 1.6 4.5 90 0.6 SW 17 20 9 11 1021.7 1021.8 1.4
02/02:00am 6.3 2.0 5.1 92 0.5 SW 17 24 9 13 1021.6 1021.7 1.4
02/01:30am 5.9 1.0 4.9 93 0.4 WSW 20 22 11 12 1021.5 1021.5 1.4
02/01:00am 6.0 1.6 4.8 92 0.5 SW 17 20 9 11 1021.5 1021.5 1.4
02/12:30am 5.6 1.2 4.7 94 0.4 WSW 17 19 9 10 1021.4 1021.4 1.4
02/12:00am 5.9 1.5 4.9 93 0.4 WSW 17 22 9 12 1021.3 1021.3 1.4
 
Date/Time
CST
Temp
°C
App
Temp
°C
Dew
Point
Rel
Hum
%
Delta-T
°C
Wind Press
QNH
hPa
Press
MSL
hPa
Rain
since 9 am
mm
Dir
 
Spd
km/h
Gust
km/h
Spd
kts
Gust
kts
01/11:30pm 6.3 2.0 5.1 92 0.5 W 17 20 9 11 1021.3 1021.3 1.4
01/11:00pm 6.9 2.3 5.8 93 0.5 WSW 19 26 10 14 1021.3 1021.3 1.4
01/10:30pm 6.7 4.0 5.7 93 0.4 SSW 9 15 5 8 1021.0 1021.0 1.4
01/10:00pm 7.9 3.5 6.5 91 0.6 WSW 19 26 10 14 1020.6 1020.6 1.4
01/09:30pm 8.0 3.7 7.2 95 0.4 WSW 19 35 10 19 1020.6 1020.6 1.4
01/09:00pm 6.4 3.7 5.5 94 0.4 SW 9 13 5 7 1020.0 1020.0 1.2
01/08:30pm 7.6 3.2 6.4 92 0.5 SW 19 26 10 14 1019.7 1019.7 1.2
01/08:00pm 7.6 4.7 6.5 93 0.5 SW 11 15 6 8 1019.3 1019.3 1.2
01/07:30pm 8.6 1.7 7.2 91 0.7 SW 33 59 18 32 1019.3 1019.3 1.0
01/07:24pm 8.6 2.7 7.5 93 0.5 SW 28 54 15 29 1019.2 1019.2 0.8
01/07:00pm 7.9 4.7 6.7 92 0.6 W 13 15 7 8 1018.3 1018.3 0.8
01/06:30pm 9.7 5.0 7.8 88 0.9 WSW 22 33 12 18 1017.8 1017.8 0.8
01/06:00pm 10.1 6.1 6.8 80 1.6 WSW 17 20 9 11 1017.6 1017.6 0.8
01/05:30pm 11.1 7.2 7.0 76 2.0 SW 17 24 9 13 1016.9 1016.9 0.8
01/05:00pm 12.7 7.5 7.4 70 2.6 WSW 24 32 13 17 1016.4 1016.4 0.8
01/04:30pm 13.3 8.2 7.5 68 2.8 SW 24 35 13 19 1015.9 1015.9 0.8
01/04:00pm 14.6 9.4 7.4 62 3.6 SW 24 39 13 21 1015.4 1015.4 0.8
01/03:30pm 14.5 9.1 8.2 66 3.2 SW 26 39 14 21 1015.3 1015.3 0.8
01/03:00pm 15.6 10.2 8.1 61 3.8 SW 26 33 14 18 1014.7 1014.7 0.6
01/02:30pm 15.2 8.7 8.2 63 3.5 SW 32 43 17 23 1014.6 1014.6 0.6
01/02:00pm 15.1 9.8 9.9 71 2.7 WSW 28 37 15 20 1014.7 1014.7 0.6
01/01:43pm 15.1 9.6 9.0 67 3.1 WSW 28 48 15 26 1014.5 1014.5 0.6
01/01:30pm 15.2 9.8 9.6 69 2.9 WSW 28 37 15 20 1014.4 1014.4 0.6
01/01:00pm 14.8 9.4 9.4 70 2.8 WSW 28 43 15 23 1014.6 1014.6 0.6
01/12:59pm 15.2 9.7 9.3 68 3.1 WSW 28 43 15 23 1014.6 1014.6 0.6
01/12:30pm 14.8 11.7 11.6 81 1.7 WSW 19 24 10 13 1014.8 1014.8 0.6
01/12:00pm 13.3 10.3 10.8 85 1.3 SW 17 22 9 12 1015.4 1015.4 0.6
01/11:30am 12.7 9.4 10.8 88 1.0 WSW 19 24 10 13 1015.5 1015.5 0.6
01/11:00am 11.7 9.5 10.8 94 0.5 SSW 13 15 7 8 1015.4 1015.4 0.6
01/10:30am 11.2 7.7 10.3 94 0.5 SSW 19 24 10 13 1015.3 1015.3 0.6
01/10:00am 11.4 7.8 10.6 95 0.4 SSW 20 32 11 17 1015.2 1015.2 0.6
01/09:30am 11.9 8.1 11.0 94 0.5 SW 22 28 12 15 1015.0 1015.0 0.6
01/09:00am 12.5 10.4 11.1 91 0.7 W 13 17 7 9 1014.5 1014.6 3.2
01/08:30am 12.1 11.2 11.3 95 0.4 NNW 7 11 4 6 1014.3 1014.4 3.2
01/08:00am 11.5 10.5 11.0 97 0.3 N 7 11 4 6 1013.9 1014.0 3.2
01/07:30am 11.2 9.4 10.9 98 0.2 NNE 11 17 6 9 1013.8 1013.9 3.2
01/07:00am 11.1 8.5 10.8 98 0.2 N 15 17 8 9 1014.2 1014.3 3.0
01/06:30am 10.9 10.7 10.6 98 0.2 W 2 7 1 4 1013.5 1013.6 2.8
01/06:00am 10.8 11.0 10.5 98 0.2 CALM 0 0 0 0 1013.2 1013.3 2.6
01/05:30am 10.8 11.0 10.5 98 0.2 CALM 0 0 0 0 1012.9 1012.9 2.6
01/05:00am 10.9 9.9 10.4 97 0.3 WSW 6 7 3 4 1012.7 1012.8 2.2
01/04:30am 11.1 11.3 10.6 97 0.3 CALM 0 0 0 0 1012.7 1012.8 1.6
01/04:00am 11.3 9.8 10.7 96 0.3 SW 9 11 5 6 1012.6 1012.7 1.4
01/03:30am 11.4 10.3 10.6 95 0.4 S 7 9 4 5 1012.1 1012.2 1.2
01/03:00am 11.8 10.5 11.2 96 0.3 WSW 9 13 5 7 1012.9 1012.9 0.6
01/02:30am 12.0 10.1 11.7 98 0.2 WSW 13 19 7 10 1012.2 1012.3 0.4
01/02:00am 11.5 10.6 11.2 98 0.2 NNW 7 11 4 6 1011.9 1012.0 0.2
01/01:30am 10.6 8.3 10.3 98 0.2 N 13 15 7 8 1012.5 1012.6 0.0
01/01:00am 10.3 9.1 9.7 96 0.3 ESE 6 13 3 7 1012.4 1012.5 0.0
01/12:30am 10.7 10.7 9.8 94 0.5 CALM 0 0 0 0 1013.0 1013.1 0.0
01/12:00am 11.5 10.5 10.2 92 0.7 ESE 6 11 3 6 1013.1 1013.2 0.0
 
Date/Time
CST
Temp
°C
App
Temp
°C
Dew
Point
Rel
Hum
%
Delta-T
°C
Wind Press
QNH
hPa
Press
MSL
hPa
Rain
since 9 am
mm
Dir
 
Spd
km/h
Gust
km/h
Spd
kts
Gust
kts
31/11:30pm 13.2 10.9 11.6 90 0.9 SSW 15 20 8 11 1012.6 1012.7 0.0
31/11:00pm 12.7 9.7 9.3 80 1.7 S 15 20 8 11 1011.9 1012.0 0.0
31/10:30pm 13.3 9.4 8.6 73 2.4 SW 19 24 10 13 1011.8 1011.9 0.0
31/10:00pm 10.7 7.7 6.1 73 2.2 S 11 17 6 9 1011.7 1011.8 0.0
31/09:30pm 11.0 7.6 6.0 71 2.3 WSW 13 17 7 9 1011.3 1011.4 0.0
31/09:00pm 11.9 8.7 5.3 64 3.1 SW 11 15 6 8 1011.5 1011.6 0.0
31/08:30pm 12.3 11.0 6.1 66 2.9 SSW 2 7 1 4 1011.2 1011.3 0.0
31/08:00pm 13.0 11.0 6.1 63 3.3 WNW 6 9 3 5 1011.1 1011.2 0.0
31/07:30pm 13.7 11.7 7.0 64 3.3 NNW 7 15 4 8 1011.0 1011.1 0.0
31/07:00pm 15.0 13.1 7.5 61 3.7 N 7 9 4 5 1010.5 1010.6 0.0
31/06:30pm 16.3 11.8 5.9 50 5.1 N 19 22 10 12 1010.6 1010.7 0.0
31/06:00pm 17.8 13.2 5.4 44 6.0 N 19 24 10 13 1010.8 1010.9 0.0
31/05:30pm 18.2 14.3 7.0 48 5.6 N 17 22 9 12 1010.5 1010.6 0.0
31/05:00pm 18.4 14.7 7.8 50 5.4 N 17 19 9 10 1010.4 1010.5 0.0
31/04:30pm 20.0 15.5 7.1 43 6.6 N 20 26 11 14 1010.4 1010.5 0.0
31/04:00pm 21.2 15.5 6.7 39 7.4 N 26 33 14 18 1010.4 1010.5 0.0
31/03:30pm 22.4 16.0 5.4 33 8.5 NNE 28 37 15 20 1010.4 1010.5 0.0
31/03:05pm 22.5 15.8 5.4 33 8.6 N 30 48 16 26 1011.2 1011.3 0.0
31/03:00pm 22.8 15.6 4.8 31 9.0 N 32 48 17 26 1011.3 1011.4 0.0

Other Formats:

Comma delimited format used in spreadsheet applications
http://www.bom.gov.au/fwo/IDS60801/IDS60801.95670.axf

JavaScript Object Notation format (JSON) in row-major order
http://www.bom.gov.au/fwo/IDS60801/IDS60801.95670.json